Time;durP1;ratioP1;P1;durP2;ratioP2;P2;SDS_P1;SDS_P2;PMS_P1;PMS_P2;Temp;Humidity;BMP_temperature;BMP_pressure;BME280_temperature;BME280_humidity;BME280_pressure;Samples;Min_cycle;Max_cycle;Signal;HPM_P1;HPM_P2
2022/12/13 00:00:25;;;;;;;13.20;7.25;;;;;;;-2.73;100.00;97400.96;1772992;81;20956;-78
2022/12/13 00:02:53;;;;;;;20.00;10.23;;;;;;;-2.74;100.00;97401.44;1738847;82;21483;-81
2022/12/13 00:05:18;;;;;;;14.53;8.10;;;;;;;-2.73;100.00;97394.33;1739056;82;20899;-79
2022/12/13 00:07:44;;;;;;;15.80;7.83;;;;;;;-2.78;100.00;97397.59;1738969;82;20879;-81
2022/12/13 00:10:10;;;;;;;15.40;7.78;;;;;;;-2.75;100.00;97401.66;1717838;83;21502;-78
2022/12/13 00:12:36;;;;;;;16.25;6.58;;;;;;;-2.78;100.00;97404.23;1749615;81;20860;-79
2022/12/13 00:15:04;;;;;;;13.93;7.05;;;;;;;-2.76;100.00;97399.52;1719437;83;21685;-81
2022/12/13 00:17:31;;;;;;;12.73;5.45;;;;;;;-2.80;100.00;97399.66;1731016;82;21283;-79
2022/12/13 00:19:57;;;;;;;15.35;6.85;;;;;;;-2.82;100.00;97403.00;1730978;82;21038;-81
2022/12/13 00:22:24;;;;;;;20.68;9.85;;;;;;;-2.85;100.00;97411.39;1731226;82;20892;-80
2022/12/13 00:24:50;;;;;;;15.35;7.55;;;;;;;-2.88;100.00;97412.63;1749244;81;21019;-79
2022/12/13 00:27:16;;;;;;;19.42;8.63;;;;;;;-2.87;100.00;97416.09;1731057;81;21151;-81
2022/12/13 00:29:41;;;;;;;11.35;5.10;;;;;;;-2.87;100.00;97417.42;1761169;81;20919;-78
2022/12/13 00:32:07;;;;;;;13.38;6.62;;;;;;;-2.94;100.00;97414.78;1761582;81;20972;-81
2022/12/13 00:34:33;;;;;;;17.85;9.83;;;;;;;-2.94;100.00;97415.30;1761100;81;20849;-81
2022/12/13 00:36:59;;;;;;;15.53;6.87;;;;;;;-2.97;100.00;97415.72;1761598;81;20899;-79
2022/12/13 00:39:25;;;;;;;13.28;6.67;;;;;;;-3.02;100.00;97413.67;1761017;81;21022;-79
2022/12/13 00:41:51;;;;;;;14.25;6.87;;;;;;;-3.04;100.00;97415.73;1761708;81;21551;-79
2022/12/13 00:44:18;;;;;;;18.23;7.33;;;;;;;-3.03;100.00;97418.68;1761230;81;20892;-79
2022/12/13 00:46:45;;;;;;;13.28;7.30;;;;;;;-3.14;100.00;97420.14;1761128;81;21004;-81
2022/12/13 00:49:11;;;;;;;17.48;9.13;;;;;;;-3.07;100.00;97427.27;1761166;81;21412;-79
2022/12/13 00:51:37;;;;;;;11.40;5.97;;;;;;;-3.09;100.00;97427.97;1761210;81;21101;-81
2022/12/13 00:54:04;;;;;;;16.10;7.83;;;;;;;-3.07;100.00;97429.92;1761013;81;20995;-78
2022/12/13 00:56:31;;;;;;;15.98;5.97;;;;;;;-3.07;100.00;97437.88;1761442;81;21063;-81
2022/12/13 00:58:57;;;;;;;11.22;6.33;;;;;;;-3.06;100.00;97442.15;1761303;81;20992;-79
2022/12/13 01:01:29;;;;;;;11.00;6.00;;;;;;;-3.07;100.00;97438.69;1749981;81;20888;-80
2022/12/13 01:03:57;;;;;;;12.78;6.97;;;;;;;-3.04;100.00;97444.08;1731000;82;21126;-78
2022/12/13 01:06:27;;;;;;;13.50;6.47;;;;;;;-3.03;100.00;97441.21;1731262;82;21012;-81
2022/12/13 01:08:53;;;;;;;12.58;7.17;;;;;;;-3.01;100.00;97436.52;1730926;82;20972;-78
2022/12/13 01:11:19;;;;;;;13.55;7.08;;;;;;;-2.99;100.00;97438.47;1731182;82;20964;-79
2022/12/13 01:13:45;;;;;;;15.32;7.15;;;;;;;-2.94;100.00;97439.16;1731108;82;21670;-78
2022/12/13 01:16:11;;;;;;;6.60;3.98;;;;;;;-2.95;100.00;97441.50;1731086;82;21174;-79
2022/12/13 01:18:38;;;;;;;15.05;7.90;;;;;;;-2.92;100.00;97441.08;1730951;82;21194;-79
2022/12/13 01:21:10;;;;;;;16.02;8.33;;;;;;;-2.97;100.00;97435.60;1731202;82;21432;-78
2022/12/13 01:23:36;;;;;;;12.55;6.00;;;;;;;-3.01;100.00;97436.52;1761418;81;20960;-78
2022/12/13 01:26:04;;;;;;;18.82;7.30;;;;;;;-3.01;100.00;97441.81;1757762;81;21024;-78
2022/12/13 01:28:30;;;;;;;14.18;6.67;;;;;;;-3.01;100.00;97443.14;1745784;80;21052;-81
2022/12/13 01:30:58;;;;;;;15.18;5.95;;;;;;;-3.01;100.00;97444.47;1768556;81;21053;-78
2022/12/13 01:33:25;;;;;;;10.68;5.50;;;;;;;-3.00;100.00;97447.92;1768849;81;21008;-81
2022/12/13 01:35:50;;;;;;;14.38;7.22;;;;;;;-2.99;100.00;97448.23;1745739;81;21044;-79
2022/12/13 01:38:17;;;;;;;13.48;6.33;;;;;;;-2.99;100.00;97447.75;1768591;81;20881;-82
2022/12/13 01:40:46;;;;;;;11.25;6.50;;;;;;;-3.03;100.00;97446.52;1768388;81;21467;-81
2022/12/13 01:43:13;;;;;;;;;;;;;;;-2.99;100.00;97453.53;1770935;81;21016;-81
2022/12/13 01:45:39;;;;;;;8.15;5.17;;;;;;;-3.00;100.00;97454.55;1768342;81;20149;-81
2022/12/13 01:48:09;;;;;;;11.45;4.78;;;;;;;-3.00;100.00;97447.92;1768640;81;21027;-78
2022/12/13 01:50:39;;;;;;;10.38;5.90;;;;;;;-2.98;100.00;97452.02;1745756;81;20992;-81
2022/12/13 01:53:06;;;;;;;11.22;6.78;;;;;;;-2.95;100.00;97456.09;1738257;81;21163;-79
2022/12/13 01:55:34;;;;;;;8.63;4.67;;;;;;;-2.92;100.00;97460.45;1745533;81;20989;-79
2022/12/13 01:58:00;;;;;;;7.65;4.75;;;;;;;-2.88;100.00;97456.89;1768664;81;21071;-78
2022/12/13 02:00:26;;;;;;;10.38;6.50;;;;;;;-2.86;100.00;97460.95;1768542;81;20988;-82
2022/12/13 02:02:53;;;;;;;13.45;7.62;;;;;;;-2.84;100.00;97462.06;1749260;82;20959;-81
2022/12/13 02:05:44;;;;;;;24.70;16.57;;;;;;;-2.83;100.00;97466.34;1730883;81;21054;-81
2022/12/13 02:08:10;;;;;;;26.00;14.85;;;;;;;-2.85;100.00;97466.56;1761168;81;21063;-78
2022/12/13 02:10:36;;;;;;;21.12;12.65;;;;;;;-2.85;100.00;97466.56;1761489;81;21420;-79
2022/12/13 02:13:02;;;;;;;12.65;6.37;;;;;;;-2.81;100.00;97473.61;1761360;81;20876;-81
2022/12/13 02:15:52;;;;;;;24.60;8.58;;;;;;;-2.77;100.00;97467.36;1761416;81;21470;-78
2022/12/13 02:18:38;;;;;;;14.87;8.08;;;;;;;-2.79;100.00;97475.53;1761556;81;21099;-81
2022/12/13 02:21:25;;;;;;;22.35;10.58;;;;;;;-2.81;100.00;97471.47;1753847;81;21015;-81
2022/12/13 02:24:31;;;;;;;25.27;14.28;;;;;;;-2.86;100.00;97463.61;1755199;81;21066;-81
2022/12/13 02:27:17;;;;;;;20.68;10.43;;;;;;;-2.94;100.00;97469.64;1731395;82;21316;-79
2022/12/13 02:30:18;;;;;;;23.05;10.00;;;;;;;-2.93;100.00;97469.44;1730583;82;20976;-79
2022/12/13 02:33:05;;;;;;;28.52;14.58;;;;;;;-2.94;100.00;97473.62;1731276;82;21007;-79
2022/12/13 02:35:49;;;;;;;21.23;9.40;;;;;;;-2.96;100.00;97480.98;1730906;82;21513;-79
2022/12/13 02:38:44;;;;;;;18.27;8.78;;;;;;;-2.97;100.00;97476.70;1730893;82;22139;-78
2022/12/13 02:41:27;;;;;;;24.37;11.22;;;;;;;-2.98;100.00;97474.56;1731002;82;21083;-79
2022/12/13 02:43:58;;;;;;;18.90;9.85;;;;;;;-2.99;100.00;97476.06;1730973;82;21095;-78
2022/12/13 02:46:25;;;;;;;23.55;12.53;;;;;;;-2.95;100.00;97476.78;1731155;82;21069;-78
2022/12/13 02:48:52;;;;;;;17.80;8.83;;;;;;;-2.94;100.00;97481.58;1731047;82;21010;-78
2022/12/13 02:51:18;;;;;;;16.40;8.28;;;;;;;-2.94;100.00;97475.76;1731132;82;21404;-81
2022/12/13 02:53:44;;;;;;;17.00;8.48;;;;;;;-2.96;100.00;97479.14;1730919;82;21028;-81
2022/12/13 02:56:10;;;;;;;16.73;9.13;;;;;;;-3.00;100.00;97482.39;1731013;82;20908;-81
2022/12/13 02:58:40;;;;;;;48.92;21.80;;;;;;;-3.00;100.00;97485.05;1731066;82;21233;-79
2022/12/13 03:01:57;;;;;;;29.15;14.60;;;;;;;-3.07;100.00;97481.61;1738893;81;21051;-81
2022/12/13 03:08:08;;;;;;;24.27;12.35;;;;;;;-3.07;100.00;97479.77;1758900;81;21331;-79
2022/12/13 03:10:45;;;;;;;22.37;10.40;;;;;;;-3.05;100.00;97484.35;1760822;81;21051;-79
2022/12/13 03:13:37;;;;;;;15.93;8.98;;;;;;;-3.05;100.00;97486.19;1759798;81;21047;-78
2022/12/13 03:16:35;;;;;;;14.10;9.70;;;;;;;-3.07;100.00;97481.10;1759714;81;21062;-81
2022/12/13 03:19:04;;;;;;;15.78;8.80;;;;;;;-3.04;100.00;97490.47;1761421;81;21072;-81
2022/12/13 03:21:39;;;;;;;15.55;8.35;;;;;;;-2.99;100.00;97487.99;1761604;81;20992;-79
2022/12/13 03:24:06;;;;;;;14.80;7.78;;;;;;;-3.02;100.00;97482.61;1752310;81;21042;-81
2022/12/13 03:26:31;;;;;;;15.68;8.03;;;;;;;-2.98;100.00;97490.98;1731236;82;21115;-81
2022/12/13 03:28:57;;;;;;;14.20;8.05;;;;;;;-3.00;100.00;97495.64;1731002;82;20948;-79
2022/12/13 03:31:23;;;;;;;14.13;7.62;;;;;;;-3.00;100.00;97492.48;1730987;82;21059;-79
2022/12/13 03:33:49;;;;;;;12.18;6.87;;;;;;;-2.99;100.00;97495.95;1731127;82;20849;-79
2022/12/13 03:36:15;;;;;;;15.70;7.65;;;;;;;-2.98;100.00;97500.26;1730924;82;20959;-79
2022/12/13 03:38:41;;;;;;;13.62;7.80;;;;;;;-2.96;100.00;97501.67;1731106;82;21003;-78
2022/12/13 03:41:11;;;;;;;13.05;7.62;;;;;;;-3.00;100.00;97498.30;1730910;81;21083;-81
2022/12/13 03:43:38;;;;;;;10.03;6.12;;;;;;;-3.01;100.00;97503.30;1702129;82;21083;-81
2022/12/13 03:46:05;;;;;;;11.73;6.67;;;;;;;-3.03;100.00;97503.52;1730934;82;20980;-79
2022/12/13 03:48:30;;;;;;;12.85;7.28;;;;;;;-3.02;100.00;97506.47;1731070;82;21027;-78
2022/12/13 03:50:56;;;;;;;14.45;7.58;;;;;;;-3.04;100.00;97507.70;1730914;82;21662;-81
2022/12/13 03:53:22;;;;;;;16.05;7.55;;;;;;;-3.05;100.00;97504.23;1731045;82;20892;-81
2022/12/13 03:55:48;;;;;;;13.53;7.30;;;;;;;-3.07;100.00;97503.63;1730868;82;21021;-81
2022/12/13 03:58:14;;;;;;;9.85;6.40;;;;;;;-3.07;100.00;97502.82;1731095;82;20931;-81
2022/12/13 04:00:40;;;;;;;12.47;7.10;;;;;;;-3.07;100.00;97506.80;1733622;81;20971;-81
2022/12/13 04:03:06;;;;;;;37.33;13.78;;;;;;;-3.09;100.00;97508.81;1761298;81;21872;-78
2022/12/13 04:05:32;;;;;;;44.03;16.17;;;;;;;-3.14;100.00;97503.63;1761148;81;20892;-81
2022/12/13 04:07:58;;;;;;;12.70;7.03;;;;;;;-3.13;100.00;97501.28;1761484;81;20931;-81
2022/12/13 04:10:24;;;;;;;12.63;7.17;;;;;;;-3.10;100.00;97505.34;1761406;81;20861;-78
2022/12/13 04:15:34;;;;;;;13.18;6.75;;;;;;;-3.09;100.00;97510.14;1761312;81;21070;-81
2022/12/13 04:18:00;;;;;;;15.18;7.47;;;;;;;-3.11;100.00;97514.33;1761425;81;21023;-79
2022/12/13 04:20:26;;;;;;;18.62;8.65;;;;;;;-3.12;100.00;97512.70;1761169;81;20944;-79
2022/12/13 04:22:52;;;;;;;14.87;7.33;;;;;;;-3.16;100.00;97508.33;1761361;81;20853;-81
2022/12/13 04:25:18;;;;;;;12.98;7.47;;;;;;;-3.14;100.00;97512.91;1737321;81;20896;-81
2022/12/13 04:27:44;;;;;;;17.45;10.65;;;;;;;-3.14;100.00;97507.61;1731254;82;21101;-79
2022/12/13 04:30:11;;;;;;;12.55;8.25;;;;;;;-3.12;100.00;97518.00;1731067;82;21019;-79
2022/12/13 04:32:37;;;;;;;16.37;8.53;;;;;;;-3.13;100.00;97511.07;1731192;82;21090;-79
2022/12/13 04:35:03;;;;;;;47.17;29.98;;;;;;;-3.13;100.00;97514.53;1730972;82;20920;-81
2022/12/13 04:37:29;;;;;;;44.83;28.35;;;;;;;-3.13;100.00;97523.00;1731249;82;21511;-79
2022/12/13 04:39:55;;;;;;;20.40;12.70;;;;;;;-3.14;100.00;97515.56;1731174;82;21070;-78
2022/12/13 04:42:21;;;;;;;29.40;16.75;;;;;;;-3.14;100.00;97512.09;1730982;82;20895;-81
2022/12/13 04:44:48;;;;;;;27.90;17.67;;;;;;;-3.19;100.00;97511.88;1731188;82;21653;-79
2022/12/13 04:47:15;;;;;;;21.97;13.35;;;;;;;-3.18;100.00;97512.18;1730912;82;21007;-81
2022/12/13 04:49:41;;;;;;;33.83;18.87;;;;;;;-3.15;100.00;97509.95;1730825;81;21026;-79
2022/12/13 04:52:07;;;;;;;32.33;18.82;;;;;;;-3.18;100.00;97512.18;1731235;82;21846;-79
2022/12/13 04:54:33;;;;;;;22.80;14.33;;;;;;;-3.19;100.00;97508.72;1730849;82;20904;-80
2022/12/13 04:56:59;;;;;;;27.50;16.85;;;;;;;-3.21;100.00;97512.09;1731020;82;20892;-79
2022/12/13 04:59:25;;;;;;;25.40;15.63;;;;;;;-3.25;100.00;97513.50;1730903;82;20959;-79
2022/12/13 05:01:50;;;;;;;27.30;16.27;;;;;;;-3.24;100.00;97503.23;1748202;81;21387;-81
2022/12/13 05:04:17;;;;;;;26.52;15.55;;;;;;;-3.23;100.00;97506.19;1761284;81;21744;-81
2022/12/13 05:06:42;;;;;;;30.55;15.40;;;;;;;-3.25;100.00;97504.73;1761006;81;21051;-79
2022/12/13 05:09:08;;;;;;;27.90;15.13;;;;;;;-3.25;100.00;97504.73;1761200;81;20903;-81
2022/12/13 05:11:34;;;;;;;20.77;13.08;;;;;;;-3.27;100.00;97504.13;1761171;81;20869;-81
2022/12/13 05:14:00;;;;;;;20.37;11.12;;;;;;;-3.28;100.00;97507.30;1761227;81;20901;-79
2022/12/13 05:16:26;;;;;;;24.18;14.10;;;;;;;-3.28;100.00;97509.95;1761160;81;21136;-78
2022/12/13 05:18:52;;;;;;;26.07;15.72;;;;;;;-3.29;100.00;97510.97;1761186;81;20995;-81
2022/12/13 05:21:18;;;;;;;52.33;28.20;;;;;;;-3.27;100.00;97506.78;1761125;79;20967;-81
2022/12/13 05:23:44;;;;;;;39.60;18.10;;;;;;;-3.32;100.00;97514.03;1756838;81;20868;-81
2022/12/13 05:26:09;;;;;;;34.35;14.98;;;;;;;-3.31;100.00;97514.84;1730822;82;20975;-79
2022/12/13 05:28:35;;;;;;;29.95;13.83;;;;;;;-3.31;100.00;97524.13;1730906;82;21127;-78
2022/12/13 05:31:07;;;;;;;33.28;14.75;;;;;;;-3.31;100.00;97516.17;1730996;82;20935;-79
2022/12/13 05:33:33;;;;;;;31.93;13.55;;;;;;;-3.31;100.00;97520.15;1730981;82;21090;-79
2022/12/13 05:35:59;;;;;;;26.35;14.90;;;;;;;-3.35;100.00;97517.07;1730803;82;20951;-81
2022/12/13 05:38:25;;;;;;;24.32;12.07;;;;;;;-3.36;100.00;97513.30;1731221;82;20893;-81
2022/12/13 05:40:51;;;;;;;18.87;10.03;;;;;;;-3.33;100.00;97520.84;1731019;81;21806;-81
2022/12/13 05:43:16;;;;;;;12.20;7.08;;;;;;;-3.34;100.00;97514.72;1730831;82;20900;-79
2022/12/13 05:45:42;;;;;;;15.75;8.08;;;;;;;-3.31;100.00;97507.71;1731066;82;20987;-81
2022/12/13 05:48:09;;;;;;;13.53;5.97;;;;;;;-3.30;100.00;97512.50;1730816;82;20963;-78
2022/12/13 05:50:37;;;;;;;11.53;6.72;;;;;;;-3.31;100.00;97513.02;1730988;82;21018;-81
2022/12/13 05:53:03;;;;;;;13.58;6.50;;;;;;;-3.39;100.00;97521.67;1731069;82;21138;-78
2022/12/13 05:55:29;;;;;;;16.30;6.28;;;;;;;-3.41;100.00;97520.05;1730942;81;21556;-79
2022/12/13 05:57:57;;;;;;;13.18;7.15;;;;;;;-3.43;100.00;97523.89;1731165;82;20975;-78
2022/12/13 06:00:23;;;;;;;16.07;8.50;;;;;;;-3.52;100.00;97516.66;1743528;81;21066;-78
2022/12/13 06:02:49;;;;;;;20.35;9.25;;;;;;;-3.47;100.00;97524.01;1750180;80;21346;-79
2022/12/13 06:05:15;;;;;;;37.20;16.15;;;;;;;-3.52;100.00;97525.92;1750353;79;21848;-81
2022/12/13 06:07:40;;;;;;;34.00;15.78;;;;;;;-3.49;100.00;97523.40;1758275;81;20896;-79
2022/12/13 06:10:07;;;;;;;28.83;13.80;;;;;;;-3.49;100.00;97527.38;1731059;81;20893;-79
2022/12/13 06:12:34;;;;;;;22.55;13.10;;;;;;;-3.46;100.00;97533.07;1731125;82;21072;-79
2022/12/13 06:15:00;;;;;;;26.73;12.53;;;;;;;-3.51;100.00;97530.71;1719108;81;21508;-78
2022/12/13 06:17:31;;;;;;;16.90;8.70;;;;;;;-3.51;100.00;97534.69;1750783;82;21594;-81
2022/12/13 06:19:57;;;;;;;21.20;9.95;;;;;;;-3.52;100.00;97533.88;1741513;80;21546;-78
2022/12/13 06:22:23;;;;;;;19.02;8.58;;;;;;;-3.50;100.00;97538.48;1748952;81;20931;-81
2022/12/13 06:24:49;;;;;;;20.20;9.10;;;;;;;-3.48;100.00;97543.57;1759590;80;21052;-79
2022/12/13 06:27:15;;;;;;;16.48;9.28;;;;;;;-3.55;100.00;97544.88;1792384;80;20968;-79
2022/12/13 06:29:41;;;;;;;17.52;9.83;;;;;;;-3.53;100.00;97556.08;1752065;80;21759;-79
2022/12/13 06:32:07;;;;;;;37.55;14.78;;;;;;;-3.51;100.00;97547.42;1730802;82;20968;-79
2022/12/13 06:34:34;;;;;;;47.17;24.25;;;;;;;-3.50;100.00;97543.78;1737934;81;20910;-81
2022/12/13 06:37:01;;;;;;;45.60;26.20;;;;;;;-3.53;100.00;97537.54;1751401;81;20963;-81
2022/12/13 06:39:28;;;;;;;43.52;23.42;;;;;;;-3.52;100.00;97545.80;1756139;80;21040;-82
2022/12/13 06:41:54;;;;;;;43.87;19.45;;;;;;;-3.53;100.00;97548.64;1735358;81;21406;-79
2022/12/13 06:44:20;;;;;;;32.42;15.72;;;;;;;-3.51;100.00;97546.61;1730566;81;21504;-78
2022/12/13 06:46:46;;;;;;;28.20;12.45;;;;;;;-3.54;100.00;97543.86;1731027;82;21403;-79
2022/12/13 06:49:12;;;;;;;32.15;17.32;;;;;;;-3.52;100.00;97543.66;1734993;81;21462;-79
2022/12/13 06:51:38;;;;;;;27.62;17.52;;;;;;;-3.52;100.00;97547.11;1751501;81;20883;-78
2022/12/13 06:54:04;;;;;;;29.05;18.37;;;;;;;-3.51;100.00;97553.23;1756311;80;20878;-81
2022/12/13 06:56:30;;;;;;;34.78;19.30;;;;;;;-3.48;100.00;97554.17;1754800;81;20888;-79
2022/12/13 06:58:56;;;;;;;36.30;20.17;;;;;;;-3.43;100.00;97553.03;1733315;81;21003;-81
2022/12/13 07:01:22;;;;;;;49.95;23.35;;;;;;;-3.37;100.00;97559.38;1744594;81;21079;-82
2022/12/13 07:03:48;;;;;;;63.92;28.23;;;;;;;-3.32;100.00;97560.41;1750716;80;20870;-79
2022/12/13 07:06:19;;;;;;;76.82;33.50;;;;;;;-3.25;100.00;97563.85;1756954;80;22458;-81
2022/12/13 07:08:53;;;;;;;72.25;30.68;;;;;;;-3.21;100.00;97565.09;1736565;80;21042;-79
2022/12/13 07:11:22;;;;;;;83.03;30.35;;;;;;;-3.16;100.00;97563.17;1747023;81;21052;-78
2022/12/13 07:13:48;;;;;;;83.82;31.23;;;;;;;-3.13;100.00;97565.41;1754748;81;21067;-81
2022/12/13 07:16:14;;;;;;;82.67;31.93;;;;;;;-3.08;100.00;97572.73;1740893;80;21451;-82
2022/12/13 07:18:40;;;;;;;64.67;30.95;;;;;;;-3.04;100.00;97575.30;1742591;80;21137;-78
2022/12/13 07:21:07;;;;;;;139.05;46.05;;;;;;;-3.07;100.00;97575.72;1741936;79;20934;-82
2022/12/13 07:23:36;;;;;;;127.92;42.78;;;;;;;-3.03;100.00;97583.55;1742295;81;20999;-81
2022/12/13 07:26:02;;;;;;;96.50;33.98;;;;;;;-2.99;100.00;97582.11;1745731;80;21050;-79
2022/12/13 07:28:30;;;;;;;66.87;26.02;;;;;;;-2.94;100.00;97579.16;1750210;80;20948;-82
2022/12/13 07:31:02;;;;;;;67.78;26.37;;;;;;;-2.90;100.00;97578.27;1708140;81;22074;-82
2022/12/13 07:33:28;;;;;;;58.90;24.92;;;;;;;-2.92;100.00;97577.12;1755588;80;21064;-81
2022/12/13 07:36:13;;;;;;;68.42;34.53;;;;;;;-2.92;100.00;97582.42;1717054;81;21530;-79
2022/12/13 07:38:39;;;;;;;32.90;17.67;;;;;;;-2.88;100.00;97581.52;1749087;81;21258;-78
2022/12/13 07:41:06;;;;;;;29.07;13.58;;;;;;;-2.77;100.00;97584.87;1752878;80;21529;-81
2022/12/13 07:43:32;;;;;;;46.35;18.07;;;;;;;-2.73;100.00;97588.76;1750205;81;21074;-81
2022/12/13 07:46:01;;;;;;;54.35;18.98;;;;;;;-2.67;100.00;97585.27;1757397;79;21118;-81
2022/12/13 07:48:27;;;;;;;29.37;13.55;;;;;;;-2.62;100.00;97583.33;1747554;80;21036;-79
2022/12/13 07:50:54;;;;;;;26.80;12.70;;;;;;;-2.58;100.00;97580.55;1752141;80;21110;-81
2022/12/13 07:53:20;;;;;;;44.85;21.23;;;;;;;-2.57;100.00;97582.18;1715237;81;21097;-81
2022/12/13 07:55:46;;;;;;;22.95;12.28;;;;;;;-2.57;100.00;97581.67;1714474;81;21034;-81
2022/12/13 07:58:13;;;;;;;26.33;12.80;;;;;;;-2.50;100.00;97579.02;1757030;80;20940;-78
2022/12/13 08:00:41;;;;;;;28.52;13.55;;;;;;;-2.42;100.00;97578.79;1744739;80;21847;-78
2022/12/13 08:03:07;;;;;;;23.40;11.97;;;;;;;-2.44;100.00;97586.66;1760689;81;21550;-79
2022/12/13 08:05:33;;;;;;;27.48;15.13;;;;;;;-2.35;100.00;97589.40;1746451;80;20921;-78
2022/12/13 08:08:00;;;;;;;32.55;16.27;;;;;;;-2.35;100.00;97578.27;1730021;81;21410;-81
2022/12/13 08:10:27;;;;;;;41.20;22.67;;;;;;;-2.34;100.00;97581.22;1745334;81;21042;-79
2022/12/13 08:12:53;;;;;;;56.92;36.30;;;;;;;-2.33;100.00;97583.36;1747104;80;21046;-82
2022/12/13 08:15:20;;;;;;;29.63;18.42;;;;;;;-2.35;100.00;97585.42;1735641;81;20858;-78
2022/12/13 08:17:47;;;;;;;42.08;22.17;;;;;;;-2.33;100.00;97590.00;1749627;80;21046;-79
2022/12/13 08:20:12;;;;;;;50.17;30.43;;;;;;;-2.35;100.00;97593.38;1762318;80;21092;-82
2022/12/13 08:22:39;;;;;;;44.18;24.60;;;;;;;-2.29;100.00;97595.21;1744948;81;20892;-81
2022/12/13 08:25:06;;;;;;;53.42;26.07;;;;;;;-2.23;100.00;97595.69;1742794;81;20988;-82
2022/12/13 08:27:32;;;;;;;44.75;23.87;;;;;;;-2.16;100.00;97591.17;1747593;81;21043;-81
2022/12/13 08:29:58;;;;;;;34.35;16.77;;;;;;;-2.18;100.00;97598.55;1760079;80;21036;-82
2022/12/13 08:32:24;;;;;;;25.05;13.08;;;;;;;-2.15;100.00;97598.11;1751755;81;20987;-79
2022/12/13 08:34:50;;;;;;;20.77;11.80;;;;;;;-2.15;100.00;97604.75;1766549;80;21052;-81
2022/12/13 08:37:16;;;;;;;24.02;11.05;;;;;;;-2.14;100.00;97608.22;1753973;80;20981;-79
2022/12/13 08:39:43;;;;;;;26.15;12.43;;;;;;;-2.12;100.00;97599.56;1744932;79;20878;-82
2022/12/13 08:42:15;;;;;;;48.23;21.87;;;;;;;-2.03;100.00;97599.63;1741068;81;21448;-82
2022/12/13 08:44:41;;;;;;;144.35;57.70;;;;;;;-2.02;100.00;97602.07;1738191;80;21775;-81
2022/12/13 08:47:07;;;;;;;129.10;58.00;;;;;;;-2.05;100.00;97616.26;1742588;80;21023;-81
2022/12/13 08:49:33;;;;;;;68.45;31.12;;;;;;;-2.03;100.00;97604.94;1741537;80;20982;-79
2022/12/13 08:51:59;;;;;;;44.13;21.85;;;;;;;-2.11;100.00;97614.45;1743589;81;21124;-79
2022/12/13 08:54:25;;;;;;;31.10;17.10;;;;;;;-2.22;100.00;97614.59;1750392;80;20889;-79
2022/12/13 08:56:51;;;;;;;34.75;17.92;;;;;;;-2.23;100.00;97616.92;1749158;80;21957;-79
2022/12/13 08:59:17;;;;;;;27.93;14.23;;;;;;;-2.26;100.00;97610.70;1756240;79;20937;-81
2022/12/13 09:01:44;;;;;;;27.50;15.68;;;;;;;-2.36;99.33;97611.14;1742845;80;21083;-81
2022/12/13 09:04:09;;;;;;;30.12;15.08;;;;;;;-2.38;99.63;97613.70;1743215;81;21429;-79
2022/12/13 09:06:36;;;;;;;39.90;19.70;;;;;;;-2.47;97.88;97615.77;1748009;79;20999;-81
2022/12/13 09:09:02;;;;;;;22.30;10.88;;;;;;;-2.47;98.14;97614.95;1744331;81;21090;-81
2022/12/13 09:11:27;;;;;;;20.75;12.75;;;;;;;-2.44;99.64;97614.53;1742730;80;20995;-78
2022/12/13 09:13:53;;;;;;;30.12;19.90;;;;;;;-2.41;100.00;97616.25;1743046;80;20896;-82
2022/12/13 09:16:25;;;;;;;21.45;14.25;;;;;;;-2.51;98.21;97612.39;1746808;80;22620;-82
2022/12/13 09:18:48;;;;;;;23.98;14.55;;;;;;;-2.46;99.81;97614.74;1745502;80;21090;-81
2022/12/13 09:21:14;;;;;;;21.45;14.03;;;;;;;-2.42;100.00;97613.29;1776250;80;21020;-79
2022/12/13 09:23:41;;;;;;;24.95;15.45;;;;;;;-2.35;100.00;97621.25;1742047;81;21148;-79
2022/12/13 09:26:07;;;;;;;17.52;10.68;;;;;;;-2.39;98.54;97617.39;1730524;81;21448;-82
2022/12/13 09:28:35;;;;;;;16.42;9.48;;;;;;;-2.31;99.71;97619.31;1746076;80;21031;-82
2022/12/13 09:31:11;;;;;;;11.45;6.95;;;;;;;-2.41;96.12;97616.76;1734586;80;20963;-79
2022/12/13 09:33:37;;;;;;;17.27;10.60;;;;;;;-2.60;94.72;97619.23;1735512;81;21529;-81
2022/12/13 09:36:05;;;;;;;21.12;10.95;;;;;;;-2.57;96.18;97616.67;1752826;80;20909;-81
2022/12/13 09:38:34;;;;;;;21.48;15.20;;;;;;;-2.62;96.00;97612.00;1766361;80;21412;-78
2022/12/13 09:41:09;;;;;;;;;;;;;;;-2.72;95.42;97622.22;1750677;80;21038;-82
2022/12/13 09:43:35;;;;;;;15.35;9.23;;;;;;;-2.67;96.55;97622.40;1740678;81;20347;-82
2022/12/13 09:46:09;;;;;;;18.00;9.95;;;;;;;-2.69;97.05;97617.00;1742314;80;21107;-81
2022/12/13 09:48:35;;;;;;;15.00;10.98;;;;;;;-2.66;97.58;97624.54;1742532;81;21071;-78
2022/12/13 09:51:02;;;;;;;11.88;7.92;;;;;;;-2.68;97.23;97618.11;1739148;80;20876;-81
2022/12/13 09:53:28;;;;;;;11.00;6.30;;;;;;;-2.75;96.09;97622.60;1748393;80;21093;-79
2022/12/13 09:55:54;;;;;;;19.48;8.83;;;;;;;-2.81;95.65;97616.81;1759516;80;21145;-78
2022/12/13 09:58:24;;;;;;;11.95;7.22;;;;;;;-2.79;96.44;97622.72;1741908;80;21155;-81
2022/12/13 10:00:53;;;;;;;11.30;8.30;;;;;;;-2.88;96.57;97618.64;1743672;81;21165;-79
2022/12/13 10:03:20;;;;;;;8.95;5.42;;;;;;;-2.83;97.28;97624.13;1743950;81;21083;-78
2022/12/13 10:06:16;;;;;;;9.20;7.12;;;;;;;-3.01;96.98;97626.06;1746367;80;21105;-78
2022/12/13 10:08:45;;;;;;;10.78;7.30;;;;;;;-3.00;97.73;97617.59;1741560;81;21429;-78
2022/12/13 10:11:15;;;;;;;8.43;5.60;;;;;;;-2.86;97.96;97617.41;1743269;80;21037;-79
2022/12/13 10:13:48;;;;;;;12.85;8.93;;;;;;;-2.75;97.04;97614.64;1742201;80;21050;-79
2022/12/13 10:16:34;;;;;;;20.48;12.47;;;;;;;-2.53;97.04;97611.78;1739774;80;21349;-78
2022/12/13 10:19:02;;;;;;;14.60;7.80;;;;;;;-2.42;96.27;97607.17;1738751;81;21147;-81
2022/12/13 10:21:35;;;;;;;15.08;8.03;;;;;;;-2.25;96.36;97609.69;1742696;80;21003;-81
2022/12/13 10:24:21;;;;;;;16.35;9.93;;;;;;;-2.16;94.84;97604.45;1743478;80;21833;-82
2022/12/13 10:26:47;;;;;;;15.50;11.10;;;;;;;-2.13;94.29;97600.59;1746918;80;21119;-82
2022/12/13 10:29:13;;;;;;;9.30;6.37;;;;;;;-2.22;94.22;97607.12;1748973;80;21034;-82
2022/12/13 10:31:48;;;;;;;12.00;6.08;;;;;;;-2.36;93.53;97601.05;1742911;80;21553;-78
2022/12/13 10:34:24;;;;;;;14.07;7.28;;;;;;;-2.32;95.06;97600.92;1749881;80;21005;-79
2022/12/13 10:36:50;;;;;;;12.98;6.65;;;;;;;-2.29;95.79;97600.52;1742863;81;21297;-79
2022/12/13 10:39:19;;;;;;;8.60;5.45;;;;;;;-2.13;96.65;97604.05;1742812;80;21054;-81
2022/12/13 10:41:46;;;;;;;10.45;6.22;;;;;;;-1.93;96.98;97596.53;1722530;81;21023;-79
2022/12/13 10:44:19;;;;;;;9.48;5.50;;;;;;;-1.81;93.34;97604.94;1749429;80;20999;-82
2022/12/13 10:47:05;;;;;;;12.68;7.62;;;;;;;-1.57;96.15;97601.26;1756858;80;21446;-81
2022/12/13 10:49:40;;;;;;;9.48;5.30;;;;;;;-1.47;94.32;97601.61;1718408;80;21314;-82
2022/12/13 10:52:09;;;;;;;9.70;4.70;;;;;;;-1.25;95.57;97597.60;1769312;80;21464;-79
2022/12/13 10:54:36;;;;;;;10.80;6.03;;;;;;;-1.32;92.16;97598.15;1748850;80;21123;-79
2022/12/13 10:57:02;;;;;;;16.12;9.40;;;;;;;-1.24;94.14;97592.58;1752408;81;21455;-79
2022/12/13 10:59:38;;;;;;;14.43;6.17;;;;;;;-1.24;92.63;97593.91;1764062;80;21641;-82
2022/12/13 11:02:36;;;;;;;12.03;6.62;;;;;;;-1.22;93.58;97587.86;1740579;81;21258;-78
2022/12/13 11:05:28;;;;;;;22.80;10.28;;;;;;;-1.29;93.73;97595.57;1760994;80;21146;-82
2022/12/13 11:07:56;;;;;;;19.92;9.48;;;;;;;-1.38;94.78;97590.21;1757044;80;21035;-81
2022/12/13 11:10:27;;;;;;;16.87;9.43;;;;;;;-1.47;94.12;97591.79;1757212;80;20984;-78
2022/12/13 11:12:59;;;;;;;22.37;9.30;;;;;;;-1.58;94.78;97588.48;1753291;80;21095;-82
2022/12/13 11:15:25;;;;;;;15.60;7.47;;;;;;;-1.56;94.04;97585.61;1767406;80;21817;-81
2022/12/13 11:17:53;;;;;;;19.15;9.33;;;;;;;-1.55;93.36;97580.59;1753654;81;21512;-79
2022/12/13 11:20:38;;;;;;;14.90;8.93;;;;;;;-1.53;94.25;97584.69;1724000;81;21535;-79
2022/12/13 11:23:30;;;;;;;28.27;12.30;;;;;;;-1.48;94.65;97582.19;1729678;81;21269;-79
2022/12/13 11:25:59;;;;;;;15.95;8.68;;;;;;;-1.49;93.32;97577.91;1745193;80;21095;-81
2022/12/13 11:29:02;;;;;;;19.95;11.97;;;;;;;-1.55;92.49;97577.42;1753889;80;21303;-78
2022/12/13 11:31:42;;;;;;;40.83;21.35;;;;;;;-1.53;92.06;97582.03;1625780;86;21307;-79